sensor_id;sensor_type;location;lat;lon;timestamp;P1;durP1;ratioP1;P2;durP2;ratioP2
58468;SDS011;44257;44.804;10.220;2023-04-25T00:01:31;4.20;;;2.28;;
58468;SDS011;44257;44.804;10.220;2023-04-25T00:04:01;6.03;;;2.30;;
58468;SDS011;44257;44.804;10.220;2023-04-25T00:06:28;4.43;;;2.00;;
58468;SDS011;44257;44.804;10.220;2023-04-25T00:08:55;4.10;;;1.70;;
58468;SDS011;44257;44.804;10.220;2023-04-25T00:11:21;5.05;;;2.25;;
58468;SDS011;44257;44.804;10.220;2023-04-25T00:13:48;4.90;;;2.42;;
58468;SDS011;44257;44.804;10.220;2023-04-25T00:16:15;3.35;;;1.67;;
58468;SDS011;44257;44.804;10.220;2023-04-25T00:18:42;2.97;;;1.50;;
58468;SDS011;44257;44.804;10.220;2023-04-25T00:21:08;2.70;;;1.48;;
58468;SDS011;44257;44.804;10.220;2023-04-25T00:23:34;3.60;;;1.50;;
58468;SDS011;44257;44.804;10.220;2023-04-25T00:26:01;3.67;;;1.58;;
58468;SDS011;44257;44.804;10.220;2023-04-25T00:28:27;3.88;;;1.63;;
58468;SDS011;44257;44.804;10.220;2023-04-25T00:30:53;3.63;;;1.63;;
58468;SDS011;44257;44.804;10.220;2023-04-25T00:33:19;3.00;;;1.40;;
58468;SDS011;44257;44.804;10.220;2023-04-25T00:35:45;3.35;;;1.55;;
58468;SDS011;44257;44.804;10.220;2023-04-25T00:38:11;2.50;;;1.30;;
58468;SDS011;44257;44.804;10.220;2023-04-25T00:40:37;3.70;;;1.40;;
58468;SDS011;44257;44.804;10.220;2023-04-25T00:43:02;3.33;;;1.60;;
58468;SDS011;44257;44.804;10.220;2023-04-25T00:45:29;2.40;;;1.33;;
58468;SDS011;44257;44.804;10.220;2023-04-25T00:47:55;3.65;;;1.60;;
58468;SDS011;44257;44.804;10.220;2023-04-25T00:50:22;2.83;;;1.70;;
58468;SDS011;44257;44.804;10.220;2023-04-25T00:52:48;2.50;;;1.40;;
58468;SDS011;44257;44.804;10.220;2023-04-25T00:55:14;3.05;;;1.67;;
58468;SDS011;44257;44.804;10.220;2023-04-25T00:57:40;2.60;;;1.50;;
58468;SDS011;44257;44.804;10.220;2023-04-25T01:00:09;1.88;;;1.13;;
58468;SDS011;44257;44.804;10.220;2023-04-25T01:02:36;5.15;;;1.83;;
58468;SDS011;44257;44.804;10.220;2023-04-25T01:05:02;6.22;;;1.80;;
58468;SDS011;44257;44.804;10.220;2023-04-25T01:07:29;3.40;;;1.70;;
58468;SDS011;44257;44.804;10.220;2023-04-25T01:09:55;2.83;;;1.80;;
58468;SDS011;44257;44.804;10.220;2023-04-25T01:12:22;3.92;;;1.88;;
58468;SDS011;44257;44.804;10.220;2023-04-25T01:14:48;3.55;;;1.80;;
58468;SDS011;44257;44.804;10.220;2023-04-25T01:17:14;3.60;;;1.85;;
58468;SDS011;44257;44.804;10.220;2023-04-25T01:19:41;2.63;;;1.63;;
58468;SDS011;44257;44.804;10.220;2023-04-25T01:22:07;4.30;;;1.67;;
58468;SDS011;44257;44.804;10.220;2023-04-25T01:24:35;3.53;;;1.63;;
58468;SDS011;44257;44.804;10.220;2023-04-25T01:27:02;3.33;;;1.80;;
58468;SDS011;44257;44.804;10.220;2023-04-25T01:29:28;7.95;;;1.83;;
58468;SDS011;44257;44.804;10.220;2023-04-25T01:31:55;3.97;;;1.88;;
58468;SDS011;44257;44.804;10.220;2023-04-25T01:34:23;3.50;;;2.03;;
58468;SDS011;44257;44.804;10.220;2023-04-25T01:36:50;4.18;;;1.73;;
58468;SDS011;44257;44.804;10.220;2023-04-25T01:39:18;3.78;;;1.98;;
58468;SDS011;44257;44.804;10.220;2023-04-25T01:41:44;4.15;;;1.95;;
58468;SDS011;44257;44.804;10.220;2023-04-25T01:44:12;4.97;;;2.50;;
58468;SDS011;44257;44.804;10.220;2023-04-25T01:46:39;4.03;;;2.30;;
58468;SDS011;44257;44.804;10.220;2023-04-25T01:49:05;3.50;;;2.17;;
58468;SDS011;44257;44.804;10.220;2023-04-25T01:51:31;4.82;;;2.40;;
58468;SDS011;44257;44.804;10.220;2023-04-25T01:53:58;3.60;;;2.33;;
58468;SDS011;44257;44.804;10.220;2023-04-25T01:56:24;3.30;;;2.13;;
58468;SDS011;44257;44.804;10.220;2023-04-25T01:58:50;4.03;;;2.30;;
58468;SDS011;44257;44.804;10.220;2023-04-25T02:01:19;4.63;;;2.35;;
58468;SDS011;44257;44.804;10.220;2023-04-25T02:03:56;4.88;;;2.38;;
58468;SDS011;44257;44.804;10.220;2023-04-25T02:06:28;6.40;;;2.50;;
58468;SDS011;44257;44.804;10.220;2023-04-25T02:08:56;3.60;;;2.30;;
58468;SDS011;44257;44.804;10.220;2023-04-25T02:11:22;3.97;;;2.30;;
58468;SDS011;44257;44.804;10.220;2023-04-25T02:14:13;3.50;;;2.33;;
58468;SDS011;44257;44.804;10.220;2023-04-25T02:16:58;3.88;;;2.30;;
58468;SDS011;44257;44.804;10.220;2023-04-25T02:19:24;4.20;;;2.38;;
58468;SDS011;44257;44.804;10.220;2023-04-25T02:21:50;6.30;;;2.33;;
58468;SDS011;44257;44.804;10.220;2023-04-25T02:24:15;4.70;;;2.67;;
58468;SDS011;44257;44.804;10.220;2023-04-25T02:26:41;6.53;;;2.83;;
58468;SDS011;44257;44.804;10.220;2023-04-25T02:29:08;6.10;;;2.15;;
58468;SDS011;44257;44.804;10.220;2023-04-25T02:31:34;6.72;;;2.13;;
58468;SDS011;44257;44.804;10.220;2023-04-25T02:34:00;3.47;;;2.38;;
58468;SDS011;44257;44.804;10.220;2023-04-25T02:36:26;4.35;;;2.40;;
58468;SDS011;44257;44.804;10.220;2023-04-25T02:38:52;3.42;;;2.05;;
58468;SDS011;44257;44.804;10.220;2023-04-25T02:41:19;5.00;;;2.63;;
58468;SDS011;44257;44.804;10.220;2023-04-25T02:43:46;4.80;;;2.22;;
58468;SDS011;44257;44.804;10.220;2023-04-25T02:46:12;4.82;;;2.42;;
58468;SDS011;44257;44.804;10.220;2023-04-25T02:48:38;5.80;;;2.75;;
58468;SDS011;44257;44.804;10.220;2023-04-25T02:51:04;4.90;;;2.60;;
58468;SDS011;44257;44.804;10.220;2023-04-25T02:53:30;4.78;;;2.58;;
58468;SDS011;44257;44.804;10.220;2023-04-25T02:55:56;3.50;;;2.53;;
58468;SDS011;44257;44.804;10.220;2023-04-25T02:58:24;4.10;;;2.72;;
58468;SDS011;44257;44.804;10.220;2023-04-25T03:00:52;7.95;;;3.33;;
58468;SDS011;44257;44.804;10.220;2023-04-25T03:03:18;5.43;;;2.88;;
58468;SDS011;44257;44.804;10.220;2023-04-25T03:05:48;5.50;;;2.95;;
58468;SDS011;44257;44.804;10.220;2023-04-25T03:08:18;4.05;;;2.53;;
58468;SDS011;44257;44.804;10.220;2023-04-25T03:10:44;4.68;;;2.78;;
58468;SDS011;44257;44.804;10.220;2023-04-25T03:13:12;6.28;;;2.58;;
58468;SDS011;44257;44.804;10.220;2023-04-25T03:15:40;3.88;;;2.42;;
58468;SDS011;44257;44.804;10.220;2023-04-25T03:18:06;3.83;;;2.60;;
58468;SDS011;44257;44.804;10.220;2023-04-25T03:20:32;5.00;;;3.00;;
58468;SDS011;44257;44.804;10.220;2023-04-25T03:22:57;4.88;;;3.13;;
58468;SDS011;44257;44.804;10.220;2023-04-25T03:25:23;6.82;;;3.30;;
58468;SDS011;44257;44.804;10.220;2023-04-25T03:27:49;4.45;;;2.90;;
58468;SDS011;44257;44.804;10.220;2023-04-25T03:30:15;6.22;;;3.53;;
58468;SDS011;44257;44.804;10.220;2023-04-25T03:32:42;5.45;;;3.00;;
58468;SDS011;44257;44.804;10.220;2023-04-25T03:35:08;5.40;;;3.22;;
58468;SDS011;44257;44.804;10.220;2023-04-25T03:37:34;5.95;;;3.30;;
58468;SDS011;44257;44.804;10.220;2023-04-25T03:40:00;7.03;;;3.38;;
58468;SDS011;44257;44.804;10.220;2023-04-25T03:42:45;5.82;;;3.40;;
58468;SDS011;44257;44.804;10.220;2023-04-25T03:45:11;6.57;;;3.42;;
58468;SDS011;44257;44.804;10.220;2023-04-25T03:47:37;4.70;;;3.05;;
58468;SDS011;44257;44.804;10.220;2023-04-25T03:50:02;6.75;;;3.63;;
58468;SDS011;44257;44.804;10.220;2023-04-25T03:52:28;4.43;;;3.42;;
58468;SDS011;44257;44.804;10.220;2023-04-25T03:54:54;6.05;;;3.75;;
58468;SDS011;44257;44.804;10.220;2023-04-25T03:57:23;7.30;;;4.95;;
58468;SDS011;44257;44.804;10.220;2023-04-25T03:59:48;6.78;;;4.40;;
58468;SDS011;44257;44.804;10.220;2023-04-25T04:02:15;5.65;;;3.70;;
58468;SDS011;44257;44.804;10.220;2023-04-25T04:04:41;5.65;;;3.80;;
58468;SDS011;44257;44.804;10.220;2023-04-25T04:07:09;6.10;;;4.00;;
58468;SDS011;44257;44.804;10.220;2023-04-25T04:09:38;6.07;;;3.88;;
58468;SDS011;44257;44.804;10.220;2023-04-25T04:12:08;6.05;;;3.60;;
58468;SDS011;44257;44.804;10.220;2023-04-25T04:14:36;4.88;;;3.50;;
58468;SDS011;44257;44.804;10.220;2023-04-25T04:17:02;5.30;;;3.25;;
58468;SDS011;44257;44.804;10.220;2023-04-25T04:19:29;5.00;;;3.75;;
58468;SDS011;44257;44.804;10.220;2023-04-25T04:22:15;9.20;;;4.15;;
58468;SDS011;44257;44.804;10.220;2023-04-25T04:24:41;5.03;;;3.55;;
58468;SDS011;44257;44.804;10.220;2023-04-25T04:27:10;6.30;;;4.47;;
58468;SDS011;44257;44.804;10.220;2023-04-25T04:30:07;8.05;;;4.55;;
58468;SDS011;44257;44.804;10.220;2023-04-25T04:32:37;10.60;;;4.80;;
58468;SDS011;44257;44.804;10.220;2023-04-25T04:35:04;7.47;;;4.85;;
58468;SDS011;44257;44.804;10.220;2023-04-25T04:37:31;7.25;;;4.63;;
58468;SDS011;44257;44.804;10.220;2023-04-25T04:39:58;6.63;;;4.28;;
58468;SDS011;44257;44.804;10.220;2023-04-25T04:42:37;9.50;;;4.25;;
58468;SDS011;44257;44.804;10.220;2023-04-25T04:45:36;7.07;;;4.32;;
58468;SDS011;44257;44.804;10.220;2023-04-25T04:48:05;5.65;;;3.85;;
58468;SDS011;44257;44.804;10.220;2023-04-25T04:50:53;5.93;;;4.10;;
58468;SDS011;44257;44.804;10.220;2023-04-25T04:53:51;5.75;;;4.05;;
58468;SDS011;44257;44.804;10.220;2023-04-25T04:56:35;5.32;;;3.63;;
58468;SDS011;44257;44.804;10.220;2023-04-25T04:59:19;6.32;;;4.38;;
58468;SDS011;44257;44.804;10.220;2023-04-25T05:02:02;6.05;;;4.07;;
58468;SDS011;44257;44.804;10.220;2023-04-25T05:04:44;6.40;;;3.72;;
58468;SDS011;44257;44.804;10.220;2023-04-25T05:07:40;6.57;;;4.00;;
58468;SDS011;44257;44.804;10.220;2023-04-25T05:10:23;6.93;;;3.92;;
58468;SDS011;44257;44.804;10.220;2023-04-25T05:12:54;7.43;;;4.10;;
58468;SDS011;44257;44.804;10.220;2023-04-25T05:15:35;5.65;;;4.43;;
58468;SDS011;44257;44.804;10.220;2023-04-25T05:18:39;7.00;;;4.45;;
58468;SDS011;44257;44.804;10.220;2023-04-25T05:21:24;5.97;;;4.57;;
58468;SDS011;44257;44.804;10.220;2023-04-25T05:24:05;7.20;;;4.90;;
58468;SDS011;44257;44.804;10.220;2023-04-25T05:27:03;8.82;;;4.55;;
58468;SDS011;44257;44.804;10.220;2023-04-25T05:29:51;8.40;;;4.90;;
58468;SDS011;44257;44.804;10.220;2023-04-25T05:32:52;8.20;;;4.57;;
58468;SDS011;44257;44.804;10.220;2023-04-25T05:35:18;4.88;;;3.72;;
58468;SDS011;44257;44.804;10.220;2023-04-25T05:37:49;9.48;;;3.90;;
58468;SDS011;44257;44.804;10.220;2023-04-25T05:40:26;5.43;;;3.90;;
58468;SDS011;44257;44.804;10.220;2023-04-25T05:43:15;6.18;;;3.65;;
58468;SDS011;44257;44.804;10.220;2023-04-25T05:45:50;5.63;;;3.20;;
58468;SDS011;44257;44.804;10.220;2023-04-25T05:48:43;4.47;;;3.28;;
58468;SDS011;44257;44.804;10.220;2023-04-25T05:51:35;5.85;;;3.65;;
58468;SDS011;44257;44.804;10.220;2023-04-25T05:54:14;5.03;;;3.30;;
58468;SDS011;44257;44.804;10.220;2023-04-25T05:56:40;7.53;;;3.38;;
58468;SDS011;44257;44.804;10.220;2023-04-25T05:59:06;6.75;;;3.20;;
58468;SDS011;44257;44.804;10.220;2023-04-25T06:01:33;5.55;;;3.67;;
58468;SDS011;44257;44.804;10.220;2023-04-25T06:03:59;5.43;;;3.28;;
58468;SDS011;44257;44.804;10.220;2023-04-25T06:06:25;7.10;;;3.38;;
58468;SDS011;44257;44.804;10.220;2023-04-25T06:08:52;7.55;;;3.88;;
58468;SDS011;44257;44.804;10.220;2023-04-25T06:11:18;6.80;;;3.92;;
58468;SDS011;44257;44.804;10.220;2023-04-25T06:13:45;6.80;;;3.80;;
58468;SDS011;44257;44.804;10.220;2023-04-25T06:16:11;7.43;;;3.90;;
58468;SDS011;44257;44.804;10.220;2023-04-25T06:18:38;7.80;;;4.18;;
58468;SDS011;44257;44.804;10.220;2023-04-25T06:21:04;6.80;;;4.00;;
58468;SDS011;44257;44.804;10.220;2023-04-25T06:23:31;5.95;;;4.35;;
58468;SDS011;44257;44.804;10.220;2023-04-25T06:26:01;5.78;;;3.72;;
58468;SDS011;44257;44.804;10.220;2023-04-25T06:28:29;6.53;;;3.90;;
58468;SDS011;44257;44.804;10.220;2023-04-25T06:30:54;6.53;;;3.72;;
58468;SDS011;44257;44.804;10.220;2023-04-25T06:33:21;5.05;;;3.03;;
58468;SDS011;44257;44.804;10.220;2023-04-25T06:35:48;5.32;;;3.30;;
58468;SDS011;44257;44.804;10.220;2023-04-25T06:38:17;4.85;;;3.30;;
58468;SDS011;44257;44.804;10.220;2023-04-25T06:40:46;4.72;;;3.30;;
58468;SDS011;44257;44.804;10.220;2023-04-25T06:43:12;7.10;;;3.80;;
58468;SDS011;44257;44.804;10.220;2023-04-25T06:45:57;5.28;;;3.33;;
58468;SDS011;44257;44.804;10.220;2023-04-25T06:48:26;6.50;;;3.10;;
58468;SDS011;44257;44.804;10.220;2023-04-25T06:50:53;4.22;;;2.95;;
58468;SDS011;44257;44.804;10.220;2023-04-25T06:53:19;4.50;;;2.90;;
58468;SDS011;44257;44.804;10.220;2023-04-25T06:55:49;4.38;;;3.08;;
58468;SDS011;44257;44.804;10.220;2023-04-25T06:58:18;4.75;;;2.60;;
58468;SDS011;44257;44.804;10.220;2023-04-25T07:00:49;4.45;;;2.60;;
58468;SDS011;44257;44.804;10.220;2023-04-25T07:03:17;5.13;;;2.95;;
58468;SDS011;44257;44.804;10.220;2023-04-25T07:05:43;3.95;;;2.55;;
58468;SDS011;44257;44.804;10.220;2023-04-25T07:08:11;4.63;;;2.67;;
58468;SDS011;44257;44.804;10.220;2023-04-25T07:10:37;4.57;;;2.47;;
58468;SDS011;44257;44.804;10.220;2023-04-25T07:13:03;4.15;;;2.70;;
58468;SDS011;44257;44.804;10.220;2023-04-25T07:15:29;4.43;;;2.65;;
58468;SDS011;44257;44.804;10.220;2023-04-25T07:17:56;4.95;;;2.97;;
58468;SDS011;44257;44.804;10.220;2023-04-25T07:20:22;4.47;;;2.53;;
58468;SDS011;44257;44.804;10.220;2023-04-25T07:22:49;5.68;;;3.67;;
58468;SDS011;44257;44.804;10.220;2023-04-25T07:25:16;4.82;;;3.08;;
58468;SDS011;44257;44.804;10.220;2023-04-25T07:27:42;5.50;;;3.05;;
58468;SDS011;44257;44.804;10.220;2023-04-25T07:30:16;4.88;;;3.08;;
58468;SDS011;44257;44.804;10.220;2023-04-25T07:32:41;6.80;;;3.50;;
58468;SDS011;44257;44.804;10.220;2023-04-25T07:35:08;5.13;;;3.38;;
58468;SDS011;44257;44.804;10.220;2023-04-25T07:37:34;5.00;;;2.80;;
58468;SDS011;44257;44.804;10.220;2023-04-25T07:40:13;4.60;;;3.05;;
58468;SDS011;44257;44.804;10.220;2023-04-25T07:42:48;5.07;;;3.58;;
58468;SDS011;44257;44.804;10.220;2023-04-25T07:45:20;4.93;;;3.38;;
58468;SDS011;44257;44.804;10.220;2023-04-25T07:47:46;5.55;;;3.70;;
58468;SDS011;44257;44.804;10.220;2023-04-25T07:50:12;4.85;;;3.53;;
58468;SDS011;44257;44.804;10.220;2023-04-25T07:52:38;6.80;;;3.33;;
58468;SDS011;44257;44.804;10.220;2023-04-25T07:55:13;4.45;;;3.05;;
58468;SDS011;44257;44.804;10.220;2023-04-25T07:57:57;4.75;;;3.40;;
58468;SDS011;44257;44.804;10.220;2023-04-25T08:00:26;4.10;;;3.28;;
58468;SDS011;44257;44.804;10.220;2023-04-25T08:03:09;5.70;;;3.55;;
58468;SDS011;44257;44.804;10.220;2023-04-25T08:05:35;4.28;;;3.30;;
58468;SDS011;44257;44.804;10.220;2023-04-25T08:08:04;5.82;;;3.75;;
58468;SDS011;44257;44.804;10.220;2023-04-25T08:10:32;4.78;;;3.35;;
58468;SDS011;44257;44.804;10.220;2023-04-25T08:12:59;4.95;;;3.25;;
58468;SDS011;44257;44.804;10.220;2023-04-25T08:15:25;5.28;;;3.47;;
58468;SDS011;44257;44.804;10.220;2023-04-25T08:17:51;4.78;;;3.55;;
58468;SDS011;44257;44.804;10.220;2023-04-25T08:20:17;4.18;;;3.35;;
58468;SDS011;44257;44.804;10.220;2023-04-25T08:22:47;5.25;;;3.83;;
58468;SDS011;44257;44.804;10.220;2023-04-25T08:25:26;5.22;;;3.90;;
58468;SDS011;44257;44.804;10.220;2023-04-25T08:27:52;4.40;;;3.65;;
58468;SDS011;44257;44.804;10.220;2023-04-25T08:30:20;5.13;;;3.30;;
58468;SDS011;44257;44.804;10.220;2023-04-25T08:32:46;4.97;;;3.55;;
58468;SDS011;44257;44.804;10.220;2023-04-25T08:35:31;3.60;;;2.47;;
58468;SDS011;44257;44.804;10.220;2023-04-25T08:37:59;2.15;;;1.30;;
58468;SDS011;44257;44.804;10.220;2023-04-25T08:40:27;1.85;;;0.75;;
58468;SDS011;44257;44.804;10.220;2023-04-25T08:43:06;1.30;;;0.70;;
58468;SDS011;44257;44.804;10.220;2023-04-25T08:45:40;0.70;;;0.40;;
58468;SDS011;44257;44.804;10.220;2023-04-25T08:48:16;0.40;;;0.30;;
58468;SDS011;44257;44.804;10.220;2023-04-25T08:50:52;0.63;;;0.45;;
58468;SDS011;44257;44.804;10.220;2023-04-25T08:53:26;0.90;;;0.40;;
58468;SDS011;44257;44.804;10.220;2023-04-25T08:55:54;2.22;;;0.50;;
58468;SDS011;44257;44.804;10.220;2023-04-25T08:58:21;0.90;;;0.40;;
58468;SDS011;44257;44.804;10.220;2023-04-25T09:00:49;1.30;;;0.60;;
58468;SDS011;44257;44.804;10.220;2023-04-25T09:03:17;2.03;;;0.40;;
58468;SDS011;44257;44.804;10.220;2023-04-25T09:05:45;1.05;;;0.50;;
58468;SDS011;44257;44.804;10.220;2023-04-25T09:08:14;0.80;;;0.40;;
58468;SDS011;44257;44.804;10.220;2023-04-25T09:10:41;1.73;;;0.95;;
58468;SDS011;44257;44.804;10.220;2023-04-25T09:13:08;0.68;;;0.52;;
58468;SDS011;44257;44.804;10.220;2023-04-25T09:15:56;1.00;;;0.57;;
58468;SDS011;44257;44.804;10.220;2023-04-25T09:18:40;0.73;;;0.45;;
58468;SDS011;44257;44.804;10.220;2023-04-25T09:21:07;0.47;;;0.30;;
58468;SDS011;44257;44.804;10.220;2023-04-25T09:23:39;0.77;;;0.40;;
58468;SDS011;44257;44.804;10.220;2023-04-25T09:26:17;0.80;;;0.30;;
58468;SDS011;44257;44.804;10.220;2023-04-25T09:28:44;1.95;;;0.40;;
58468;SDS011;44257;44.804;10.220;2023-04-25T09:31:21;0.63;;;0.30;;
58468;SDS011;44257;44.804;10.220;2023-04-25T09:33:49;1.05;;;0.70;;
58468;SDS011;44257;44.804;10.220;2023-04-25T09:36:15;2.10;;;0.47;;
58468;SDS011;44257;44.804;10.220;2023-04-25T09:39:00;1.20;;;0.40;;
58468;SDS011;44257;44.804;10.220;2023-04-25T09:44:02;2.75;;;0.40;;
58468;SDS011;44257;44.804;10.220;2023-04-25T09:46:34;0.63;;;0.40;;
58468;SDS011;44257;44.804;10.220;2023-04-25T09:49:13;1.30;;;0.40;;
58468;SDS011;44257;44.804;10.220;2023-04-25T09:52:00;1.92;;;0.43;;
58468;SDS011;44257;44.804;10.220;2023-04-25T09:54:33;3.03;;;0.55;;
58468;SDS011;44257;44.804;10.220;2023-04-25T09:57:16;1.42;;;0.55;;
58468;SDS011;44257;44.804;10.220;2023-04-25T09:59:45;1.60;;;0.80;;
58468;SDS011;44257;44.804;10.220;2023-04-25T10:02:13;3.22;;;0.43;;
58468;SDS011;44257;44.804;10.220;2023-04-25T10:04:42;1.17;;;0.50;;
58468;SDS011;44257;44.804;10.220;2023-04-25T10:07:21;0.77;;;0.57;;
58468;SDS011;44257;44.804;10.220;2023-04-25T10:09:52;0.82;;;0.52;;
58468;SDS011;44257;44.804;10.220;2023-04-25T10:12:24;2.53;;;0.60;;
58468;SDS011;44257;44.804;10.220;2023-04-25T10:14:51;1.17;;;0.50;;
58468;SDS011;44257;44.804;10.220;2023-04-25T10:17:19;0.70;;;0.50;;
58468;SDS011;44257;44.804;10.220;2023-04-25T10:19:46;1.08;;;0.63;;
58468;SDS011;44257;44.804;10.220;2023-04-25T10:22:24;5.13;;;0.70;;
58468;SDS011;44257;44.804;10.220;2023-04-25T10:24:53;1.38;;;0.73;;
58468;SDS011;44257;44.804;10.220;2023-04-25T10:27:20;2.70;;;0.70;;
58468;SDS011;44257;44.804;10.220;2023-04-25T10:29:48;4.55;;;0.80;;
58468;SDS011;44257;44.804;10.220;2023-04-25T10:32:46;1.63;;;1.08;;
58468;SDS011;44257;44.804;10.220;2023-04-25T10:35:17;1.83;;;1.05;;
58468;SDS011;44257;44.804;10.220;2023-04-25T10:40:39;1.67;;;0.80;;
58468;SDS011;44257;44.804;10.220;2023-04-25T10:46:12;9.40;;;5.13;;
58468;SDS011;44257;44.804;10.220;2023-04-25T10:48:52;13.65;;;8.30;;
58468;SDS011;44257;44.804;10.220;2023-04-25T10:51:32;17.00;;;12.52;;
58468;SDS011;44257;44.804;10.220;2023-04-25T10:54:02;20.98;;;15.05;;
58468;SDS011;44257;44.804;10.220;2023-04-25T10:59:07;25.70;;;18.67;;
58468;SDS011;44257;44.804;10.220;2023-04-25T11:01:36;12.35;;;9.05;;
58468;SDS011;44257;44.804;10.220;2023-04-25T11:04:19;46.75;;;28.20;;
58468;SDS011;44257;44.804;10.220;2023-04-25T11:09:31;4.82;;;2.47;;
58468;SDS011;44257;44.804;10.220;2023-04-25T11:11:59;4.25;;;2.47;;
58468;SDS011;44257;44.804;10.220;2023-04-25T11:14:26;6.15;;;4.13;;
58468;SDS011;44257;44.804;10.220;2023-04-25T11:16:55;2.97;;;1.98;;
58468;SDS011;44257;44.804;10.220;2023-04-25T11:19:23;4.18;;;1.75;;
58468;SDS011;44257;44.804;10.220;2023-04-25T11:21:50;12.45;;;7.68;;
58468;SDS011;44257;44.804;10.220;2023-04-25T11:24:20;24.05;;;19.17;;
58468;SDS011;44257;44.804;10.220;2023-04-25T11:26:52;12.15;;;8.00;;
58468;SDS011;44257;44.804;10.220;2023-04-25T11:29:18;16.77;;;10.80;;
58468;SDS011;44257;44.804;10.220;2023-04-25T11:31:46;8.77;;;6.40;;
58468;SDS011;44257;44.804;10.220;2023-04-25T11:34:16;6.10;;;3.70;;
58468;SDS011;44257;44.804;10.220;2023-04-25T11:36:45;4.13;;;2.22;;
58468;SDS011;44257;44.804;10.220;2023-04-25T11:39:12;3.75;;;2.20;;
58468;SDS011;44257;44.804;10.220;2023-04-25T11:41:38;4.47;;;1.95;;
58468;SDS011;44257;44.804;10.220;2023-04-25T11:44:04;5.00;;;1.58;;
58468;SDS011;44257;44.804;10.220;2023-04-25T11:46:33;3.83;;;1.73;;
58468;SDS011;44257;44.804;10.220;2023-04-25T11:48:59;3.03;;;1.88;;
58468;SDS011;44257;44.804;10.220;2023-04-25T11:51:25;3.10;;;1.90;;
58468;SDS011;44257;44.804;10.220;2023-04-25T11:53:52;3.95;;;1.90;;
58468;SDS011;44257;44.804;10.220;2023-04-25T11:56:18;5.40;;;1.50;;
58468;SDS011;44257;44.804;10.220;2023-04-25T11:59:04;3.20;;;1.65;;
58468;SDS011;44257;44.804;10.220;2023-04-25T12:01:34;3.80;;;1.85;;
58468;SDS011;44257;44.804;10.220;2023-04-25T12:04:15;3.92;;;1.88;;
58468;SDS011;44257;44.804;10.220;2023-04-25T12:06:43;2.80;;;1.65;;
58468;SDS011;44257;44.804;10.220;2023-04-25T12:09:12;2.83;;;1.60;;
58468;SDS011;44257;44.804;10.220;2023-04-25T12:11:41;3.58;;;2.08;;
58468;SDS011;44257;44.804;10.220;2023-04-25T12:14:08;4.05;;;1.90;;
58468;SDS011;44257;44.804;10.220;2023-04-25T12:16:42;4.25;;;1.40;;
58468;SDS011;44257;44.804;10.220;2023-04-25T12:19:09;4.05;;;1.70;;
58468;SDS011;44257;44.804;10.220;2023-04-25T12:21:35;2.40;;;1.42;;
58468;SDS011;44257;44.804;10.220;2023-04-25T12:24:11;3.15;;;1.40;;
58468;SDS011;44257;44.804;10.220;2023-04-25T12:29:22;3.42;;;1.65;;
58468;SDS011;44257;44.804;10.220;2023-04-25T12:31:50;3.67;;;1.58;;
58468;SDS011;44257;44.804;10.220;2023-04-25T12:34:20;3.38;;;1.75;;
58468;SDS011;44257;44.804;10.220;2023-04-25T12:36:47;3.38;;;1.77;;
58468;SDS011;44257;44.804;10.220;2023-04-25T12:39:14;2.80;;;1.92;;
58468;SDS011;44257;44.804;10.220;2023-04-25T12:41:40;2.97;;;1.65;;
58468;SDS011;44257;44.804;10.220;2023-04-25T12:44:06;3.95;;;1.70;;
58468;SDS011;44257;44.804;10.220;2023-04-25T12:46:32;2.83;;;1.50;;
58468;SDS011;44257;44.804;10.220;2023-04-25T12:48:58;3.05;;;1.70;;
58468;SDS011;44257;44.804;10.220;2023-04-25T12:51:24;2.78;;;1.58;;
58468;SDS011;44257;44.804;10.220;2023-04-25T12:53:50;2.08;;;1.23;;
58468;SDS011;44257;44.804;10.220;2023-04-25T12:56:17;2.25;;;1.30;;
58468;SDS011;44257;44.804;10.220;2023-04-25T12:58:43;4.15;;;1.45;;
58468;SDS011;44257;44.804;10.220;2023-04-25T13:01:09;3.63;;;1.75;;
58468;SDS011;44257;44.804;10.220;2023-04-25T13:03:36;2.47;;;1.40;;
58468;SDS011;44257;44.804;10.220;2023-04-25T13:06:02;2.17;;;1.27;;
58468;SDS011;44257;44.804;10.220;2023-04-25T13:08:29;3.97;;;1.50;;
58468;SDS011;44257;44.804;10.220;2023-04-25T13:10:55;3.03;;;1.70;;
58468;SDS011;44257;44.804;10.220;2023-04-25T13:13:21;5.20;;;1.60;;
58468;SDS011;44257;44.804;10.220;2023-04-25T13:15:47;2.78;;;1.58;;
58468;SDS011;44257;44.804;10.220;2023-04-25T13:18:14;3.05;;;1.67;;
58468;SDS011;44257;44.804;10.220;2023-04-25T13:20:41;3.55;;;1.70;;
58468;SDS011;44257;44.804;10.220;2023-04-25T13:23:07;3.45;;;1.52;;
58468;SDS011;44257;44.804;10.220;2023-04-25T13:25:32;3.03;;;1.20;;
58468;SDS011;44257;44.804;10.220;2023-04-25T13:27:59;2.88;;;1.58;;
58468;SDS011;44257;44.804;10.220;2023-04-25T13:30:25;7.35;;;4.00;;
58468;SDS011;44257;44.804;10.220;2023-04-25T13:32:51;3.35;;;2.03;;
58468;SDS011;44257;44.804;10.220;2023-04-25T13:35:18;3.65;;;1.40;;
58468;SDS011;44257;44.804;10.220;2023-04-25T13:37:44;3.08;;;1.65;;
58468;SDS011;44257;44.804;10.220;2023-04-25T13:40:10;7.72;;;5.22;;
58468;SDS011;44257;44.804;10.220;2023-04-25T13:42:37;5.07;;;1.40;;
58468;SDS011;44257;44.804;10.220;2023-04-25T13:45:03;3.13;;;1.55;;
58468;SDS011;44257;44.804;10.220;2023-04-25T13:47:29;2.55;;;1.40;;
58468;SDS011;44257;44.804;10.220;2023-04-25T13:49:56;3.63;;;1.70;;
58468;SDS011;44257;44.804;10.220;2023-04-25T13:52:22;4.88;;;1.75;;
58468;SDS011;44257;44.804;10.220;2023-04-25T13:54:51;2.63;;;1.58;;
58468;SDS011;44257;44.804;10.220;2023-04-25T13:57:17;3.40;;;1.55;;
58468;SDS011;44257;44.804;10.220;2023-04-25T13:59:43;3.20;;;1.20;;
58468;SDS011;44257;44.804;10.220;2023-04-25T14:02:09;4.93;;;1.63;;
58468;SDS011;44257;44.804;10.220;2023-04-25T14:04:35;1.77;;;1.20;;
58468;SDS011;44257;44.804;10.220;2023-04-25T14:07:01;2.97;;;1.25;;
58468;SDS011;44257;44.804;10.220;2023-04-25T14:09:29;4.40;;;1.65;;
58468;SDS011;44257;44.804;10.220;2023-04-25T14:11:55;2.75;;;1.30;;
58468;SDS011;44257;44.804;10.220;2023-04-25T14:14:22;3.90;;;1.88;;
58468;SDS011;44257;44.804;10.220;2023-04-25T14:16:48;3.65;;;1.67;;
58468;SDS011;44257;44.804;10.220;2023-04-25T14:19:15;3.78;;;2.05;;
58468;SDS011;44257;44.804;10.220;2023-04-25T14:21:42;6.35;;;2.17;;
58468;SDS011;44257;44.804;10.220;2023-04-25T14:24:08;3.38;;;1.45;;
58468;SDS011;44257;44.804;10.220;2023-04-25T14:26:35;2.40;;;1.33;;
58468;SDS011;44257;44.804;10.220;2023-04-25T14:29:02;3.70;;;1.70;;
58468;SDS011;44257;44.804;10.220;2023-04-25T14:31:30;3.47;;;2.47;;
58468;SDS011;44257;44.804;10.220;2023-04-25T14:33:56;3.08;;;1.30;;
58468;SDS011;44257;44.804;10.220;2023-04-25T14:36:22;3.50;;;2.10;;
58468;SDS011;44257;44.804;10.220;2023-04-25T14:38:48;2.97;;;1.58;;
58468;SDS011;44257;44.804;10.220;2023-04-25T14:41:14;2.83;;;2.40;;
58468;SDS011;44257;44.804;10.220;2023-04-25T14:43:39;2.83;;;1.20;;
58468;SDS011;44257;44.804;10.220;2023-04-25T14:46:06;2.38;;;1.52;;
58468;SDS011;44257;44.804;10.220;2023-04-25T14:48:32;6.20;;;1.10;;
58468;SDS011;44257;44.804;10.220;2023-04-25T14:50:59;5.80;;;3.50;;
58468;SDS011;44257;44.804;10.220;2023-04-25T14:53:25;3.65;;;1.85;;
58468;SDS011;44257;44.804;10.220;2023-04-25T14:55:52;4.70;;;2.08;;
58468;SDS011;44257;44.804;10.220;2023-04-25T14:58:18;7.53;;;4.15;;
58468;SDS011;44257;44.804;10.220;2023-04-25T15:00:45;3.78;;;2.35;;
58468;SDS011;44257;44.804;10.220;2023-04-25T15:03:12;3.22;;;1.95;;
58468;SDS011;44257;44.804;10.220;2023-04-25T15:05:38;4.43;;;1.98;;